sensor_id;sensor_type;location;lat;lon;timestamp;P1;durP1;ratioP1;P2;durP2;ratioP2
38023;SDS011;23834;48.080;11.682;2022-07-26T00:01:31;5.40;;;4.90;;
38023;SDS011;23834;48.080;11.682;2022-07-26T00:03:56;5.17;;;4.70;;
38023;SDS011;23834;48.080;11.682;2022-07-26T00:06:21;5.43;;;4.87;;
38023;SDS011;23834;48.080;11.682;2022-07-26T00:08:47;6.00;;;5.50;;
38023;SDS011;23834;48.080;11.682;2022-07-26T00:11:13;5.37;;;4.87;;
38023;SDS011;23834;48.080;11.682;2022-07-26T00:13:38;4.97;;;4.57;;
38023;SDS011;23834;48.080;11.682;2022-07-26T00:16:03;6.20;;;5.00;;
38023;SDS011;23834;48.080;11.682;2022-07-26T00:18:29;5.10;;;4.70;;
38023;SDS011;23834;48.080;11.682;2022-07-26T00:20:54;5.07;;;4.57;;
38023;SDS011;23834;48.080;11.682;2022-07-26T00:23:19;5.20;;;4.80;;
38023;SDS011;23834;48.080;11.682;2022-07-26T00:25:44;5.20;;;4.77;;
38023;SDS011;23834;48.080;11.682;2022-07-26T00:28:09;4.87;;;4.47;;
38023;SDS011;23834;48.080;11.682;2022-07-26T00:30:35;4.70;;;4.30;;
38023;SDS011;23834;48.080;11.682;2022-07-26T00:33:00;4.87;;;4.40;;
38023;SDS011;23834;48.080;11.682;2022-07-26T00:35:25;5.27;;;4.87;;
38023;SDS011;23834;48.080;11.682;2022-07-26T00:37:50;4.87;;;4.47;;
38023;SDS011;23834;48.080;11.682;2022-07-26T00:40:16;4.50;;;4.10;;
38023;SDS011;23834;48.080;11.682;2022-07-26T00:42:41;4.90;;;4.50;;
38023;SDS011;23834;48.080;11.682;2022-07-26T00:45:07;5.13;;;4.63;;
38023;SDS011;23834;48.080;11.682;2022-07-26T00:47:33;4.40;;;4.00;;
38023;SDS011;23834;48.080;11.682;2022-07-26T00:49:59;5.03;;;4.63;;
38023;SDS011;23834;48.080;11.682;2022-07-26T00:52:25;4.83;;;4.43;;
38023;SDS011;23834;48.080;11.682;2022-07-26T00:54:50;5.00;;;4.60;;
38023;SDS011;23834;48.080;11.682;2022-07-26T00:57:18;5.20;;;4.70;;
38023;SDS011;23834;48.080;11.682;2022-07-26T00:59:43;5.13;;;4.70;;
38023;SDS011;23834;48.080;11.682;2022-07-26T01:02:08;5.47;;;4.97;;
38023;SDS011;23834;48.080;11.682;2022-07-26T01:04:34;4.23;;;3.93;;
38023;SDS011;23834;48.080;11.682;2022-07-26T01:06:59;4.50;;;4.10;;
38023;SDS011;23834;48.080;11.682;2022-07-26T01:09:24;5.00;;;4.50;;
38023;SDS011;23834;48.080;11.682;2022-07-26T01:11:50;4.57;;;4.20;;
38023;SDS011;23834;48.080;11.682;2022-07-26T01:14:18;3.83;;;3.53;;
38023;SDS011;23834;48.080;11.682;2022-07-26T01:16:43;5.00;;;4.60;;
38023;SDS011;23834;48.080;11.682;2022-07-26T01:19:09;4.40;;;4.00;;
38023;SDS011;23834;48.080;11.682;2022-07-26T01:21:34;4.80;;;4.40;;
38023;SDS011;23834;48.080;11.682;2022-07-26T01:23:59;4.40;;;4.00;;
38023;SDS011;23834;48.080;11.682;2022-07-26T01:26:24;4.43;;;3.87;;
38023;SDS011;23834;48.080;11.682;2022-07-26T01:28:49;5.23;;;4.73;;
38023;SDS011;23834;48.080;11.682;2022-07-26T01:31:15;4.40;;;4.10;;
38023;SDS011;23834;48.080;11.682;2022-07-26T01:33:41;4.00;;;3.70;;
38023;SDS011;23834;48.080;11.682;2022-07-26T01:36:06;4.40;;;4.07;;
38023;SDS011;23834;48.080;11.682;2022-07-26T01:38:32;5.30;;;3.73;;
38023;SDS011;23834;48.080;11.682;2022-07-26T01:40:57;4.20;;;3.80;;
38023;SDS011;23834;48.080;11.682;2022-07-26T01:43:22;4.40;;;4.10;;
38023;SDS011;23834;48.080;11.682;2022-07-26T01:45:48;4.20;;;3.90;;
38023;SDS011;23834;48.080;11.682;2022-07-26T01:48:13;3.93;;;3.63;;
38023;SDS011;23834;48.080;11.682;2022-07-26T01:50:38;4.17;;;3.77;;
38023;SDS011;23834;48.080;11.682;2022-07-26T01:53:03;4.33;;;3.97;;
38023;SDS011;23834;48.080;11.682;2022-07-26T01:55:28;4.10;;;3.80;;
38023;SDS011;23834;48.080;11.682;2022-07-26T01:57:54;4.07;;;3.73;;
38023;SDS011;23834;48.080;11.682;2022-07-26T02:00:19;4.03;;;3.73;;
38023;SDS011;23834;48.080;11.682;2022-07-26T02:02:44;3.80;;;3.50;;
38023;SDS011;23834;48.080;11.682;2022-07-26T02:05:09;4.20;;;3.90;;
38023;SDS011;23834;48.080;11.682;2022-07-26T02:07:38;3.67;;;3.40;;
38023;SDS011;23834;48.080;11.682;2022-07-26T02:10:10;3.83;;;3.53;;
38023;SDS011;23834;48.080;11.682;2022-07-26T02:12:35;3.87;;;3.57;;
38023;SDS011;23834;48.080;11.682;2022-07-26T02:15:02;3.53;;;3.23;;
38023;SDS011;23834;48.080;11.682;2022-07-26T02:17:27;4.00;;;3.70;;
38023;SDS011;23834;48.080;11.682;2022-07-26T02:19:52;3.60;;;3.30;;
38023;SDS011;23834;48.080;11.682;2022-07-26T02:22:18;3.40;;;3.20;;
38023;SDS011;23834;48.080;11.682;2022-07-26T02:24:46;5.13;;;4.07;;
38023;SDS011;23834;48.080;11.682;2022-07-26T02:27:12;4.03;;;3.73;;
38023;SDS011;23834;48.080;11.682;2022-07-26T02:29:37;4.47;;;3.80;;
38023;SDS011;23834;48.080;11.682;2022-07-26T02:32:02;3.60;;;3.30;;
38023;SDS011;23834;48.080;11.682;2022-07-26T02:34:27;3.30;;;3.00;;
38023;SDS011;23834;48.080;11.682;2022-07-26T02:36:52;3.60;;;3.30;;
38023;SDS011;23834;48.080;11.682;2022-07-26T02:39:18;3.80;;;3.50;;
38023;SDS011;23834;48.080;11.682;2022-07-26T02:41:43;4.03;;;3.73;;
38023;SDS011;23834;48.080;11.682;2022-07-26T02:44:08;3.30;;;3.07;;
38023;SDS011;23834;48.080;11.682;2022-07-26T02:46:34;4.43;;;3.30;;
38023;SDS011;23834;48.080;11.682;2022-07-26T02:48:59;3.30;;;3.10;;
38023;SDS011;23834;48.080;11.682;2022-07-26T02:51:25;3.57;;;3.27;;
38023;SDS011;23834;48.080;11.682;2022-07-26T02:53:50;3.40;;;3.20;;
38023;SDS011;23834;48.080;11.682;2022-07-26T02:56:15;3.40;;;3.20;;
38023;SDS011;23834;48.080;11.682;2022-07-26T02:58:41;3.80;;;3.50;;
38023;SDS011;23834;48.080;11.682;2022-07-26T03:01:06;3.63;;;3.40;;
38023;SDS011;23834;48.080;11.682;2022-07-26T03:03:31;3.07;;;2.87;;
38023;SDS011;23834;48.080;11.682;2022-07-26T03:05:56;3.47;;;3.17;;
38023;SDS011;23834;48.080;11.682;2022-07-26T03:08:21;3.40;;;3.20;;
38023;SDS011;23834;48.080;11.682;2022-07-26T03:10:47;3.23;;;3.03;;
38023;SDS011;23834;48.080;11.682;2022-07-26T03:13:12;3.80;;;3.50;;
38023;SDS011;23834;48.080;11.682;2022-07-26T03:15:37;3.40;;;3.10;;
38023;SDS011;23834;48.080;11.682;2022-07-26T03:18:02;3.87;;;3.57;;
38023;SDS011;23834;48.080;11.682;2022-07-26T03:20:27;3.60;;;3.40;;
38023;SDS011;23834;48.080;11.682;2022-07-26T03:22:53;3.30;;;3.00;;
38023;SDS011;23834;48.080;11.682;2022-07-26T03:25:18;3.13;;;2.90;;
38023;SDS011;23834;48.080;11.682;2022-07-26T03:27:43;3.03;;;2.83;;
38023;SDS011;23834;48.080;11.682;2022-07-26T03:30:08;3.20;;;3.00;;
38023;SDS011;23834;48.080;11.682;2022-07-26T03:32:34;2.80;;;2.60;;
38023;SDS011;23834;48.080;11.682;2022-07-26T03:34:59;3.30;;;3.10;;
38023;SDS011;23834;48.080;11.682;2022-07-26T03:37:24;3.40;;;3.20;;
38023;SDS011;23834;48.080;11.682;2022-07-26T03:39:50;3.33;;;3.00;;
38023;SDS011;23834;48.080;11.682;2022-07-26T03:42:15;3.70;;;3.40;;
38023;SDS011;23834;48.080;11.682;2022-07-26T03:44:41;3.30;;;3.00;;
38023;SDS011;23834;48.080;11.682;2022-07-26T03:47:06;3.07;;;2.83;;
38023;SDS011;23834;48.080;11.682;2022-07-26T03:49:31;3.30;;;3.00;;
38023;SDS011;23834;48.080;11.682;2022-07-26T03:51:56;3.37;;;3.17;;
38023;SDS011;23834;48.080;11.682;2022-07-26T03:54:22;3.60;;;3.30;;
38023;SDS011;23834;48.080;11.682;2022-07-26T03:56:47;3.20;;;2.90;;
38023;SDS011;23834;48.080;11.682;2022-07-26T03:59:12;2.50;;;2.30;;
38023;SDS011;23834;48.080;11.682;2022-07-26T04:01:38;3.10;;;2.90;;
38023;SDS011;23834;48.080;11.682;2022-07-26T04:04:06;3.60;;;2.93;;
38023;SDS011;23834;48.080;11.682;2022-07-26T04:06:32;2.97;;;2.77;;
38023;SDS011;23834;48.080;11.682;2022-07-26T04:08:57;4.13;;;3.23;;
38023;SDS011;23834;48.080;11.682;2022-07-26T04:11:23;3.33;;;3.03;;
38023;SDS011;23834;48.080;11.682;2022-07-26T04:13:48;3.10;;;2.80;;
38023;SDS011;23834;48.080;11.682;2022-07-26T04:16:13;3.00;;;2.80;;
38023;SDS011;23834;48.080;11.682;2022-07-26T04:18:39;3.00;;;2.80;;
38023;SDS011;23834;48.080;11.682;2022-07-26T04:21:04;2.70;;;2.50;;
38023;SDS011;23834;48.080;11.682;2022-07-26T04:23:29;3.50;;;2.83;;
38023;SDS011;23834;48.080;11.682;2022-07-26T04:25:55;3.57;;;3.27;;
38023;SDS011;23834;48.080;11.682;2022-07-26T04:28:20;4.53;;;3.00;;
38023;SDS011;23834;48.080;11.682;2022-07-26T04:30:45;3.10;;;2.90;;
38023;SDS011;23834;48.080;11.682;2022-07-26T04:33:10;2.90;;;2.70;;
38023;SDS011;23834;48.080;11.682;2022-07-26T04:35:36;3.20;;;3.00;;
38023;SDS011;23834;48.080;11.682;2022-07-26T04:38:01;2.70;;;2.50;;
38023;SDS011;23834;48.080;11.682;2022-07-26T04:40:28;2.90;;;2.70;;
38023;SDS011;23834;48.080;11.682;2022-07-26T04:42:57;2.93;;;2.70;;
38023;SDS011;23834;48.080;11.682;2022-07-26T04:45:22;3.13;;;2.90;;
38023;SDS011;23834;48.080;11.682;2022-07-26T04:47:48;3.00;;;2.80;;
38023;SDS011;23834;48.080;11.682;2022-07-26T04:50:14;2.83;;;2.63;;
38023;SDS011;23834;48.080;11.682;2022-07-26T04:52:39;3.10;;;2.80;;
38023;SDS011;23834;48.080;11.682;2022-07-26T04:55:05;2.57;;;2.37;;
38023;SDS011;23834;48.080;11.682;2022-07-26T04:57:30;2.97;;;2.77;;
38023;SDS011;23834;48.080;11.682;2022-07-26T04:59:56;3.30;;;2.83;;
38023;SDS011;23834;48.080;11.682;2022-07-26T05:02:21;2.90;;;2.70;;
38023;SDS011;23834;48.080;11.682;2022-07-26T05:04:46;3.47;;;3.27;;
38023;SDS011;23834;48.080;11.682;2022-07-26T05:07:12;2.87;;;2.77;;
38023;SDS011;23834;48.080;11.682;2022-07-26T05:09:37;3.27;;;3.07;;
38023;SDS011;23834;48.080;11.682;2022-07-26T05:12:02;3.40;;;3.10;;
38023;SDS011;23834;48.080;11.682;2022-07-26T05:14:27;3.40;;;3.20;;
38023;SDS011;23834;48.080;11.682;2022-07-26T05:16:53;3.30;;;3.10;;
38023;SDS011;23834;48.080;11.682;2022-07-26T05:19:18;3.10;;;2.90;;
38023;SDS011;23834;48.080;11.682;2022-07-26T05:21:44;3.10;;;2.90;;
38023;SDS011;23834;48.080;11.682;2022-07-26T05:24:09;2.63;;;2.50;;
38023;SDS011;23834;48.080;11.682;2022-07-26T05:26:35;3.10;;;2.90;;
38023;SDS011;23834;48.080;11.682;2022-07-26T05:29:00;3.20;;;2.90;;
38023;SDS011;23834;48.080;11.682;2022-07-26T05:31:25;2.93;;;2.73;;
38023;SDS011;23834;48.080;11.682;2022-07-26T05:33:51;3.20;;;2.97;;
38023;SDS011;23834;48.080;11.682;2022-07-26T05:36:16;2.70;;;2.60;;
38023;SDS011;23834;48.080;11.682;2022-07-26T05:38:41;3.00;;;2.70;;
38023;SDS011;23834;48.080;11.682;2022-07-26T05:41:07;3.10;;;2.90;;
38023;SDS011;23834;48.080;11.682;2022-07-26T05:43:32;2.70;;;2.50;;
38023;SDS011;23834;48.080;11.682;2022-07-26T05:45:57;3.00;;;2.80;;
38023;SDS011;23834;48.080;11.682;2022-07-26T05:48:22;3.00;;;2.80;;
38023;SDS011;23834;48.080;11.682;2022-07-26T05:50:48;2.83;;;2.63;;
38023;SDS011;23834;48.080;11.682;2022-07-26T05:53:13;2.87;;;2.67;;
38023;SDS011;23834;48.080;11.682;2022-07-26T05:55:39;2.90;;;2.70;;
38023;SDS011;23834;48.080;11.682;2022-07-26T05:58:04;2.47;;;2.30;;
38023;SDS011;23834;48.080;11.682;2022-07-26T06:00:29;2.97;;;2.77;;
38023;SDS011;23834;48.080;11.682;2022-07-26T06:02:54;3.10;;;2.90;;
38023;SDS011;23834;48.080;11.682;2022-07-26T06:05:19;3.00;;;2.87;;
38023;SDS011;23834;48.080;11.682;2022-07-26T06:07:45;2.87;;;2.70;;
38023;SDS011;23834;48.080;11.682;2022-07-26T06:10:10;2.87;;;2.67;;
38023;SDS011;23834;48.080;11.682;2022-07-26T06:12:35;3.50;;;3.20;;
38023;SDS011;23834;48.080;11.682;2022-07-26T06:15:01;3.60;;;2.93;;
38023;SDS011;23834;48.080;11.682;2022-07-26T06:17:26;2.70;;;2.50;;
38023;SDS011;23834;48.080;11.682;2022-07-26T06:19:54;3.13;;;2.93;;
38023;SDS011;23834;48.080;11.682;2022-07-26T06:22:19;2.90;;;2.70;;
38023;SDS011;23834;48.080;11.682;2022-07-26T06:24:44;2.97;;;2.77;;
38023;SDS011;23834;48.080;11.682;2022-07-26T06:27:09;3.03;;;2.83;;
38023;SDS011;23834;48.080;11.682;2022-07-26T06:29:34;2.60;;;2.50;;
38023;SDS011;23834;48.080;11.682;2022-07-26T06:31:59;2.70;;;2.50;;
38023;SDS011;23834;48.080;11.682;2022-07-26T06:34:25;3.17;;;2.97;;
38023;SDS011;23834;48.080;11.682;2022-07-26T06:36:50;2.93;;;2.73;;
38023;SDS011;23834;48.080;11.682;2022-07-26T06:39:15;2.63;;;2.43;;
38023;SDS011;23834;48.080;11.682;2022-07-26T06:41:40;2.67;;;2.57;;
38023;SDS011;23834;48.080;11.682;2022-07-26T06:44:05;2.83;;;2.63;;
38023;SDS011;23834;48.080;11.682;2022-07-26T06:46:31;2.70;;;2.50;;
38023;SDS011;23834;48.080;11.682;2022-07-26T06:48:56;3.50;;;3.20;;
38023;SDS011;23834;48.080;11.682;2022-07-26T06:51:21;3.23;;;3.00;;
38023;SDS011;23834;48.080;11.682;2022-07-26T06:53:47;2.77;;;2.57;;
38023;SDS011;23834;48.080;11.682;2022-07-26T06:56:12;2.90;;;2.70;;
38023;SDS011;23834;48.080;11.682;2022-07-26T06:58:39;3.00;;;2.80;;
38023;SDS011;23834;48.080;11.682;2022-07-26T07:01:04;2.70;;;2.50;;
38023;SDS011;23834;48.080;11.682;2022-07-26T07:03:29;2.90;;;2.70;;
38023;SDS011;23834;48.080;11.682;2022-07-26T07:05:55;2.93;;;2.73;;
38023;SDS011;23834;48.080;11.682;2022-07-26T07:08:20;3.10;;;2.80;;
38023;SDS011;23834;48.080;11.682;2022-07-26T07:10:46;2.93;;;2.73;;
38023;SDS011;23834;48.080;11.682;2022-07-26T07:13:12;2.73;;;2.60;;
38023;SDS011;23834;48.080;11.682;2022-07-26T07:15:37;2.80;;;2.70;;
38023;SDS011;23834;48.080;11.682;2022-07-26T07:18:02;3.00;;;2.80;;
38023;SDS011;23834;48.080;11.682;2022-07-26T07:20:27;2.80;;;2.60;;
38023;SDS011;23834;48.080;11.682;2022-07-26T07:22:53;2.40;;;2.23;;
38023;SDS011;23834;48.080;11.682;2022-07-26T07:25:18;2.63;;;2.43;;
38023;SDS011;23834;48.080;11.682;2022-07-26T07:27:43;3.10;;;2.80;;
38023;SDS011;23834;48.080;11.682;2022-07-26T07:30:09;2.50;;;2.40;;
38023;SDS011;23834;48.080;11.682;2022-07-26T07:32:35;3.20;;;2.93;;
38023;SDS011;23834;48.080;11.682;2022-07-26T07:35:00;2.70;;;2.50;;
38023;SDS011;23834;48.080;11.682;2022-07-26T07:37:25;2.83;;;2.63;;
38023;SDS011;23834;48.080;11.682;2022-07-26T07:39:50;2.90;;;2.70;;
38023;SDS011;23834;48.080;11.682;2022-07-26T07:42:16;2.40;;;2.30;;
38023;SDS011;23834;48.080;11.682;2022-07-26T07:44:41;2.67;;;2.47;;
38023;SDS011;23834;48.080;11.682;2022-07-26T07:47:06;2.80;;;2.60;;
38023;SDS011;23834;48.080;11.682;2022-07-26T07:49:33;2.60;;;2.40;;
38023;SDS011;23834;48.080;11.682;2022-07-26T07:51:58;3.10;;;2.77;;
38023;SDS011;23834;48.080;11.682;2022-07-26T07:54:23;2.67;;;2.50;;
38023;SDS011;23834;48.080;11.682;2022-07-26T07:56:48;2.60;;;2.40;;
38023;SDS011;23834;48.080;11.682;2022-07-26T07:59:15;2.80;;;2.60;;
38023;SDS011;23834;48.080;11.682;2022-07-26T08:01:40;2.50;;;2.30;;
38023;SDS011;23834;48.080;11.682;2022-07-26T08:04:05;2.40;;;2.20;;
38023;SDS011;23834;48.080;11.682;2022-07-26T08:06:30;2.67;;;2.47;;
38023;SDS011;23834;48.080;11.682;2022-07-26T08:08:56;2.40;;;2.20;;
38023;SDS011;23834;48.080;11.682;2022-07-26T08:11:21;2.50;;;2.30;;
38023;SDS011;23834;48.080;11.682;2022-07-26T08:13:46;2.73;;;2.53;;
38023;SDS011;23834;48.080;11.682;2022-07-26T08:16:11;2.60;;;2.40;;
38023;SDS011;23834;48.080;11.682;2022-07-26T08:18:37;2.60;;;2.40;;
38023;SDS011;23834;48.080;11.682;2022-07-26T08:21:02;2.67;;;2.47;;
38023;SDS011;23834;48.080;11.682;2022-07-26T08:23:27;2.60;;;2.23;;
38023;SDS011;23834;48.080;11.682;2022-07-26T08:25:53;2.50;;;2.30;;
38023;SDS011;23834;48.080;11.682;2022-07-26T08:28:18;2.43;;;2.23;;
38023;SDS011;23834;48.080;11.682;2022-07-26T08:30:43;3.10;;;2.70;;
38023;SDS011;23834;48.080;11.682;2022-07-26T08:33:08;2.80;;;2.53;;
38023;SDS011;23834;48.080;11.682;2022-07-26T08:35:33;2.50;;;2.30;;
38023;SDS011;23834;48.080;11.682;2022-07-26T08:37:59;2.67;;;2.47;;
38023;SDS011;23834;48.080;11.682;2022-07-26T08:40:24;2.43;;;2.30;;
38023;SDS011;23834;48.080;11.682;2022-07-26T08:42:50;2.30;;;2.10;;
38023;SDS011;23834;48.080;11.682;2022-07-26T08:45:25;2.47;;;2.27;;
38023;SDS011;23834;48.080;11.682;2022-07-26T08:47:51;2.47;;;2.37;;
38023;SDS011;23834;48.080;11.682;2022-07-26T08:50:16;2.57;;;2.37;;
38023;SDS011;23834;48.080;11.682;2022-07-26T08:52:41;2.33;;;2.20;;
38023;SDS011;23834;48.080;11.682;2022-07-26T08:55:07;2.50;;;2.30;;
38023;SDS011;23834;48.080;11.682;2022-07-26T08:57:33;2.90;;;2.60;;
38023;SDS011;23834;48.080;11.682;2022-07-26T09:02:42;2.33;;;2.13;;
38023;SDS011;23834;48.080;11.682;2022-07-26T09:05:07;2.90;;;2.70;;
38023;SDS011;23834;48.080;11.682;2022-07-26T09:07:32;2.23;;;2.13;;
38023;SDS011;23834;48.080;11.682;2022-07-26T09:09:59;2.60;;;2.40;;
38023;SDS011;23834;48.080;11.682;2022-07-26T09:12:25;2.00;;;1.90;;
38023;SDS011;23834;48.080;11.682;2022-07-26T09:14:51;1.90;;;1.80;;
38023;SDS011;23834;48.080;11.682;2022-07-26T09:17:17;2.60;;;2.40;;
38023;SDS011;23834;48.080;11.682;2022-07-26T09:19:43;2.60;;;2.40;;
38023;SDS011;23834;48.080;11.682;2022-07-26T09:22:12;2.50;;;2.30;;
38023;SDS011;23834;48.080;11.682;2022-07-26T09:24:46;2.40;;;2.20;;
38023;SDS011;23834;48.080;11.682;2022-07-26T09:27:13;2.07;;;1.97;;
38023;SDS011;23834;48.080;11.682;2022-07-26T09:29:45;2.17;;;2.03;;
38023;SDS011;23834;48.080;11.682;2022-07-26T09:32:13;2.30;;;2.20;;
38023;SDS011;23834;48.080;11.682;2022-07-26T09:34:41;3.07;;;2.40;;
38023;SDS011;23834;48.080;11.682;2022-07-26T09:37:06;2.50;;;2.30;;
38023;SDS011;23834;48.080;11.682;2022-07-26T09:39:31;2.60;;;2.40;;
38023;SDS011;23834;48.080;11.682;2022-07-26T09:41:57;2.33;;;2.20;;
38023;SDS011;23834;48.080;11.682;2022-07-26T09:44:23;2.90;;;2.70;;
38023;SDS011;23834;48.080;11.682;2022-07-26T09:46:52;2.40;;;2.20;;
38023;SDS011;23834;48.080;11.682;2022-07-26T09:49:19;3.43;;;2.27;;
38023;SDS011;23834;48.080;11.682;2022-07-26T09:51:45;2.17;;;1.97;;
38023;SDS011;23834;48.080;11.682;2022-07-26T09:54:15;2.53;;;2.33;;
38023;SDS011;23834;48.080;11.682;2022-07-26T09:59:06;2.30;;;2.20;;
38023;SDS011;23834;48.080;11.682;2022-07-26T10:01:31;2.53;;;2.33;;
38023;SDS011;23834;48.080;11.682;2022-07-26T10:03:58;2.73;;;2.53;;
38023;SDS011;23834;48.080;11.682;2022-07-26T10:06:23;2.50;;;2.30;;
38023;SDS011;23834;48.080;11.682;2022-07-26T10:08:48;2.53;;;2.33;;
38023;SDS011;23834;48.080;11.682;2022-07-26T10:11:13;2.30;;;2.10;;
38023;SDS011;23834;48.080;11.682;2022-07-26T10:13:39;2.43;;;2.23;;
38023;SDS011;23834;48.080;11.682;2022-07-26T10:16:04;2.17;;;2.03;;
38023;SDS011;23834;48.080;11.682;2022-07-26T10:23:46;2.60;;;2.40;;
38023;SDS011;23834;48.080;11.682;2022-07-26T10:28:55;2.20;;;2.10;;
38023;SDS011;23834;48.080;11.682;2022-07-26T10:31:24;2.50;;;2.30;;
38023;SDS011;23834;48.080;11.682;2022-07-26T10:33:50;2.37;;;2.17;;
38023;SDS011;23834;48.080;11.682;2022-07-26T10:36:35;2.10;;;1.87;;
38023;SDS011;23834;48.080;11.682;2022-07-26T10:46:34;3.33;;;2.27;;
38023;SDS011;23834;48.080;11.682;2022-07-26T10:49:00;1.90;;;1.80;;
38023;SDS011;23834;48.080;11.682;2022-07-26T10:51:35;2.07;;;1.97;;
38023;SDS011;23834;48.080;11.682;2022-07-26T10:54:05;2.67;;;2.47;;
38023;SDS011;23834;48.080;11.682;2022-07-26T10:56:31;1.97;;;1.87;;
38023;SDS011;23834;48.080;11.682;2022-07-26T10:58:57;2.43;;;1.90;;
38023;SDS011;23834;48.080;11.682;2022-07-26T11:01:30;2.90;;;2.13;;
38023;SDS011;23834;48.080;11.682;2022-07-26T11:03:56;1.83;;;1.73;;
38023;SDS011;23834;48.080;11.682;2022-07-26T11:06:22;2.37;;;2.17;;
38023;SDS011;23834;48.080;11.682;2022-07-26T11:08:50;2.03;;;1.93;;
38023;SDS011;23834;48.080;11.682;2022-07-26T11:11:26;2.10;;;1.90;;
38023;SDS011;23834;48.080;11.682;2022-07-26T11:13:51;2.03;;;1.80;;
38023;SDS011;23834;48.080;11.682;2022-07-26T11:16:27;2.03;;;1.93;;
38023;SDS011;23834;48.080;11.682;2022-07-26T11:18:52;1.93;;;1.83;;
38023;SDS011;23834;48.080;11.682;2022-07-26T11:21:17;2.33;;;2.03;;
38023;SDS011;23834;48.080;11.682;2022-07-26T11:23:43;2.63;;;1.70;;
38023;SDS011;23834;48.080;11.682;2022-07-26T11:26:10;2.17;;;2.07;;
38023;SDS011;23834;48.080;11.682;2022-07-26T11:28:42;1.97;;;1.77;;
38023;SDS011;23834;48.080;11.682;2022-07-26T11:31:07;1.67;;;1.57;;
38023;SDS011;23834;48.080;11.682;2022-07-26T11:33:40;2.03;;;1.90;;
38023;SDS011;23834;48.080;11.682;2022-07-26T11:36:05;2.20;;;2.00;;
38023;SDS011;23834;48.080;11.682;2022-07-26T11:41:11;2.13;;;2.03;;
38023;SDS011;23834;48.080;11.682;2022-07-26T11:43:39;1.73;;;1.63;;
38023;SDS011;23834;48.080;11.682;2022-07-26T11:46:04;1.87;;;1.77;;
38023;SDS011;23834;48.080;11.682;2022-07-26T11:48:30;1.80;;;1.70;;
38023;SDS011;23834;48.080;11.682;2022-07-26T11:53:38;1.60;;;1.50;;
38023;SDS011;23834;48.080;11.682;2022-07-26T11:56:16;1.80;;;1.70;;
38023;SDS011;23834;48.080;11.682;2022-07-26T11:58:42;2.27;;;2.17;;
38023;SDS011;23834;48.080;11.682;2022-07-26T12:01:08;1.90;;;1.80;;
38023;SDS011;23834;48.080;11.682;2022-07-26T12:03:37;1.83;;;1.73;;
38023;SDS011;23834;48.080;11.682;2022-07-26T12:06:03;1.93;;;1.73;;
38023;SDS011;23834;48.080;11.682;2022-07-26T12:08:41;1.73;;;1.63;;
38023;SDS011;23834;48.080;11.682;2022-07-26T12:11:07;2.23;;;1.63;;
38023;SDS011;23834;48.080;11.682;2022-07-26T12:13:37;2.20;;;2.10;;
38023;SDS011;23834;48.080;11.682;2022-07-26T12:16:11;1.60;;;1.50;;
38023;SDS011;23834;48.080;11.682;2022-07-26T12:18:37;2.43;;;1.97;;
38023;SDS011;23834;48.080;11.682;2022-07-26T12:21:06;2.10;;;1.90;;
38023;SDS011;23834;48.080;11.682;2022-07-26T12:23:45;2.10;;;2.00;;
38023;SDS011;23834;48.080;11.682;2022-07-26T12:26:25;1.77;;;1.67;;
38023;SDS011;23834;48.080;11.682;2022-07-26T12:28:51;2.13;;;2.03;;
38023;SDS011;23834;48.080;11.682;2022-07-26T12:31:20;1.70;;;1.60;;
38023;SDS011;23834;48.080;11.682;2022-07-26T12:33:46;1.63;;;1.53;;
38023;SDS011;23834;48.080;11.682;2022-07-26T12:36:18;2.00;;;1.70;;
38023;SDS011;23834;48.080;11.682;2022-07-26T12:38:43;2.20;;;2.10;;
38023;SDS011;23834;48.080;11.682;2022-07-26T12:41:09;2.00;;;1.90;;
38023;SDS011;23834;48.080;11.682;2022-07-26T12:43:40;1.90;;;1.80;;
38023;SDS011;23834;48.080;11.682;2022-07-26T12:46:06;1.77;;;1.67;;
38023;SDS011;23834;48.080;11.682;2022-07-26T12:48:31;1.80;;;1.70;;
38023;SDS011;23834;48.080;11.682;2022-07-26T12:50:56;1.90;;;1.80;;
38023;SDS011;23834;48.080;11.682;2022-07-26T12:53:22;1.90;;;1.80;;
38023;SDS011;23834;48.080;11.682;2022-07-26T12:55:47;2.03;;;1.93;;
38023;SDS011;23834;48.080;11.682;2022-07-26T12:58:12;1.87;;;1.77;;
38023;SDS011;23834;48.080;11.682;2022-07-26T13:00:37;1.70;;;1.60;;
38023;SDS011;23834;48.080;11.682;2022-07-26T13:03:03;1.80;;;1.70;;
38023;SDS011;23834;48.080;11.682;2022-07-26T13:05:28;1.57;;;1.47;;
38023;SDS011;23834;48.080;11.682;2022-07-26T13:07:55;2.17;;;1.83;;
38023;SDS011;23834;48.080;11.682;2022-07-26T13:10:20;1.60;;;1.50;;
38023;SDS011;23834;48.080;11.682;2022-07-26T13:12:46;1.80;;;1.70;;
38023;SDS011;23834;48.080;11.682;2022-07-26T13:15:11;1.97;;;1.87;;
38023;SDS011;23834;48.080;11.682;2022-07-26T13:17:36;1.70;;;1.60;;
38023;SDS011;23834;48.080;11.682;2022-07-26T13:20:01;2.10;;;1.90;;
38023;SDS011;23834;48.080;11.682;2022-07-26T13:22:26;1.80;;;1.53;;
38023;SDS011;23834;48.080;11.682;2022-07-26T13:24:52;1.60;;;1.50;;
38023;SDS011;23834;48.080;11.682;2022-07-26T13:27:17;1.77;;;1.67;;
38023;SDS011;23834;48.080;11.682;2022-07-26T13:29:42;1.80;;;1.67;;
38023;SDS011;23834;48.080;11.682;2022-07-26T13:32:08;1.60;;;1.50;;
38023;SDS011;23834;48.080;11.682;2022-07-26T13:34:33;2.10;;;2.00;;
38023;SDS011;23834;48.080;11.682;2022-07-26T13:36:58;1.80;;;1.70;;
38023;SDS011;23834;48.080;11.682;2022-07-26T13:39:24;4.03;;;1.83;;
38023;SDS011;23834;48.080;11.682;2022-07-26T13:41:51;1.33;;;1.33;;
38023;SDS011;23834;48.080;11.682;2022-07-26T13:44:16;2.13;;;1.93;;
38023;SDS011;23834;48.080;11.682;2022-07-26T13:46:42;2.00;;;1.90;;
38023;SDS011;23834;48.080;11.682;2022-07-26T13:49:07;3.67;;;1.80;;
38023;SDS011;23834;48.080;11.682;2022-07-26T13:51:35;2.07;;;1.97;;
38023;SDS011;23834;48.080;11.682;2022-07-26T13:54:20;1.83;;;1.73;;
38023;SDS011;23834;48.080;11.682;2022-07-26T13:56:46;1.97;;;1.87;;
38023;SDS011;23834;48.080;11.682;2022-07-26T13:59:11;1.80;;;1.70;;
38023;SDS011;23834;48.080;11.682;2022-07-26T14:01:37;2.40;;;1.90;;
38023;SDS011;23834;48.080;11.682;2022-07-26T14:04:03;1.70;;;1.60;;
38023;SDS011;23834;48.080;11.682;2022-07-26T14:06:28;1.80;;;1.70;;
38023;SDS011;23834;48.080;11.682;2022-07-26T14:08:53;1.90;;;1.80;;
38023;SDS011;23834;48.080;11.682;2022-07-26T14:11:19;2.20;;;2.10;;
38023;SDS011;23834;48.080;11.682;2022-07-26T14:13:44;2.10;;;1.90;;
38023;SDS011;23834;48.080;11.682;2022-07-26T14:16:09;2.00;;;1.90;;
38023;SDS011;23834;48.080;11.682;2022-07-26T14:18:35;1.90;;;1.80;;
38023;SDS011;23834;48.080;11.682;2022-07-26T14:21:01;2.43;;;2.13;;
38023;SDS011;23834;48.080;11.682;2022-07-26T14:23:26;3.50;;;1.90;;
38023;SDS011;23834;48.080;11.682;2022-07-26T14:25:51;2.00;;;1.90;;
38023;SDS011;23834;48.080;11.682;2022-07-26T14:28:17;2.10;;;1.97;;
38023;SDS011;23834;48.080;11.682;2022-07-26T14:30:42;2.17;;;2.07;;
38023;SDS011;23834;48.080;11.682;2022-07-26T14:33:07;1.70;;;1.60;;
38023;SDS011;23834;48.080;11.682;2022-07-26T14:35:33;2.07;;;1.90;;
38023;SDS011;23834;48.080;11.682;2022-07-26T14:37:58;1.90;;;1.80;;
38023;SDS011;23834;48.080;11.682;2022-07-26T14:40:23;2.03;;;1.90;;
38023;SDS011;23834;48.080;11.682;2022-07-26T14:42:49;1.97;;;1.87;;
38023;SDS011;23834;48.080;11.682;2022-07-26T14:45:14;1.97;;;1.87;;
38023;SDS011;23834;48.080;11.682;2022-07-26T14:47:39;2.10;;;2.00;;
38023;SDS011;23834;48.080;11.682;2022-07-26T14:50:05;2.10;;;2.00;;
38023;SDS011;23834;48.080;11.682;2022-07-26T14:52:30;2.47;;;2.00;;